Kyokuho Maru No.15 — JI3715 — position and weather

sailwx.info

Track history (hours):
 
Tides and Currents Weather Stations Pressure Air Temp Water Temp Dewpoint Dewpoint Depression Visibility Wind Speed Wind Dir Waves Ship Positions

Kyokuho Maru No.15

Last reported at 2015-Feb-25 08:16 UTC. Time now 2015-Feb-28 14:00 UTC.
Position N 34°37' E 134°55'.

Length 63 m; draft 4.2 m.

Type: Tanker. MMSI: 431301714.

Date/timePositionNaut miles runAvg speedWind from/ knotsBaromVisibWave heightAir tempDewpointWater temp
2015-Feb-25 08:16N 34°37' E 134°55'6 8.9
2015-Feb-25 07:33N 34°36' E 135°03'10 9.7
2015-Feb-25 06:33N 34°26' E 135°02'1310.9
2015-Feb-25 05:24N 34°14' E 134°59'910.6
2015-Feb-25 04:32N 34°05' E 135°00'  
2015-Feb-21 10:09N 35°10' E 139°46'710.9
2015-Feb-21 09:33N 35°17' E 139°45'10 9.6
2015-Feb-21 08:32N 35°27' E 139°46'14 1.5
2015-Feb-20 23:21N 35°32' E 140°02'0 0.0
2015-Feb-20 21:17N 35°32' E 140°02'0 0.0
2015-Feb-20 20:32N 35°32' E 140°02'0 0.0
2015-Feb-20 19:30N 35°32' E 140°02'4 0.3
2015-Feb-20 07:19N 35°30' E 139°58'2 0.6
2015-Feb-20 03:04N 35°27' E 139°58'510.5
2015-Feb-20 02:33N 35°30' E 139°52'6 5.8
2015-Feb-20 01:32N 35°32' E 139°45'0 0.0
2015-Feb-20 00:33N 35°32' E 139°45'0 0.0
2015-Feb-19 23:33N 35°32' E 139°45'1 1.1
2015-Feb-19 22:33N 35°31' E 139°46'6 0.2
2015-Feb-18 15:31N 35°32' E 139°53'10 9.9
2015-Feb-18 14:33N 35°24' E 139°46'9 9.2
2015-Feb-18 13:33N 35°15' E 139°47'9 9.3
2015-Feb-18 12:33N 35°06' E 139°44'239 8.2
2015-Feb-17 07:33N 34°06' E 135°03'1310.9
2015-Feb-17 06:24N 34°19' E 135°04'1011.2
2015-Feb-17 05:33N 34°27' E 135°10'1110.7
2015-Feb-17 04:33N 34°36' E 135°16'3 3.4
2015-Feb-17 03:33N 34°40' E 135°18'0 0.1
2015-Feb-17 02:33N 34°40' E 135°18'0 0.0
2015-Feb-17 01:33N 34°40' E 135°18'0 0.0
2015-Feb-17 00:33N 34°40' E 135°18'0 0.0
2015-Feb-16 23:33N 34°40' E 135°18'0 0.0
2015-Feb-16 22:33N 34°40' E 135°18'1 0.7
2015-Feb-16 21:33N 34°39' E 135°18'8 7.9
2015-Feb-16 20:32N 34°33' E 135°24'2 0.4
2015-Feb-16 16:04N 34°31' E 135°24'0 0.0
2015-Feb-16 15:33N 34°31' E 135°24'0 0.0
2015-Feb-16 14:33N 34°31' E 135°24'0 0.0
2015-Feb-16 13:34N 34°31' E 135°24'0 0.0
2015-Feb-16 12:19N 34°31' E 135°24'0 0.0
2015-Feb-16 11:23N 34°31' E 135°24'0 0.0
2015-Feb-16 10:29N 34°31' E 135°24'0 0.0
2015-Feb-16 09:22N 34°31' E 135°24'0 0.0
2015-Feb-16 06:16N 34°31' E 135°24'0 0.0
2015-Feb-16 05:33N 34°31' E 135°24'0 0.0
2015-Feb-16 04:33N 34°31' E 135°24'0 0.0
2015-Feb-15 11:06N 34°31' E 135°24'  
Track history (hours):
 
Tides and Currents Weather Stations Pressure Air Temp Water Temp Dewpoint Dewpoint Depression Visibility Wind Speed Wind Dir Waves Ship Positions

Kyokuho Maru No.15

Last reported at 2015-Feb-25 08:16 UTC. Time now 2015-Feb-28 14:00 UTC.
Position N 34°37' E 134°55'.

Length 63 m; draft 4.2 m.

Type: Tanker. MMSI: 431301714.

Date/timePositionNaut miles runAvg speedWind from/ knotsBaromVisibWave heightAir tempDewpointWater temp
2015-Feb-25 08:16N 34°37' E 134°55'6 8.9
2015-Feb-25 07:33N 34°36' E 135°03'10 9.7
2015-Feb-25 06:33N 34°26' E 135°02'1310.9
2015-Feb-25 05:24N 34°14' E 134°59'910.6
2015-Feb-25 04:32N 34°05' E 135°00'  
2015-Feb-21 10:09N 35°10' E 139°46'710.9
2015-Feb-21 09:33N 35°17' E 139°45'10 9.6
2015-Feb-21 08:32N 35°27' E 139°46'14 1.5
2015-Feb-20 23:21N 35°32' E 140°02'0 0.0
2015-Feb-20 21:17N 35°32' E 140°02'0 0.0
2015-Feb-20 20:32N 35°32' E 140°02'0 0.0
2015-Feb-20 19:30N 35°32' E 140°02'4 0.3
2015-Feb-20 07:19N 35°30' E 139°58'2 0.6
2015-Feb-20 03:04N 35°27' E 139°58'510.5
2015-Feb-20 02:33N 35°30' E 139°52'6 5.8
2015-Feb-20 01:32N 35°32' E 139°45'0 0.0
2015-Feb-20 00:33N 35°32' E 139°45'0 0.0
2015-Feb-19 23:33N 35°32' E 139°45'1 1.1
2015-Feb-19 22:33N 35°31' E 139°46'6 0.2
2015-Feb-18 15:31N 35°32' E 139°53'10 9.9
2015-Feb-18 14:33N 35°24' E 139°46'9 9.2
2015-Feb-18 13:33N 35°15' E 139°47'9 9.3
2015-Feb-18 12:33N 35°06' E 139°44'239 8.2
2015-Feb-17 07:33N 34°06' E 135°03'1310.9
2015-Feb-17 06:24N 34°19' E 135°04'1011.2
2015-Feb-17 05:33N 34°27' E 135°10'1110.7
2015-Feb-17 04:33N 34°36' E 135°16'3 3.4
2015-Feb-17 03:33N 34°40' E 135°18'0 0.1
2015-Feb-17 02:33N 34°40' E 135°18'0 0.0
2015-Feb-17 01:33N 34°40' E 135°18'0 0.0
2015-Feb-17 00:33N 34°40' E 135°18'0 0.0
2015-Feb-16 23:33N 34°40' E 135°18'0 0.0
2015-Feb-16 22:33N 34°40' E 135°18'1 0.7
2015-Feb-16 21:33N 34°39' E 135°18'8 7.9
2015-Feb-16 20:32N 34°33' E 135°24'2 0.4
2015-Feb-16 16:04N 34°31' E 135°24'0 0.0
2015-Feb-16 15:33N 34°31' E 135°24'0 0.0
2015-Feb-16 14:33N 34°31' E 135°24'0 0.0
2015-Feb-16 13:34N 34°31' E 135°24'0 0.0
2015-Feb-16 12:19N 34°31' E 135°24'0 0.0
2015-Feb-16 11:23N 34°31' E 135°24'0 0.0
2015-Feb-16 10:29N 34°31' E 135°24'0 0.0
2015-Feb-16 09:22N 34°31' E 135°24'0 0.0
2015-Feb-16 06:16N 34°31' E 135°24'0 0.0
2015-Feb-16 05:33N 34°31' E 135°24'0 0.0
2015-Feb-16 04:33N 34°31' E 135°24'0 0.0
2015-Feb-15 11:06N 34°31' E 135°24'  

Dump ship's entire track history